CheckWX is a tool to help pilots better visualize weather data.  It is not intended as a substitute for an official pre-flight weather briefing.

22:20:13 UTC

FMNN METAR
Fascene Airport
Nosy Be, Madagascar
Current

8 hours ago

FMNN 201400Z 24008KT 9999 FEW020 29/23 Q1012
Observed
Oct-20 @ 14:00 UTC
Wind
  • 240° at 8 KTS
Visibility
10,000+ meters
Flight Rules
VFR
Cloud Levels
  • Few at 2,000' AGL
Temperature
29°C / 84°F
Dewpoint
23°C / 73°F
Heat Index
32°C / 90°F
Humidity
70%
Altimeter
29.88" Hg
Pressure
1011.92 hPa
Previous

9 hours ago

FMNN 201300Z 24008KT 9999 FEW020 31/23 Q1011
Observed
Oct-20 @ 13:00 UTC
Wind
  • 240° at 8 KTS
Visibility
10,000+ meters
Flight Rules
VFR
Cloud Levels
  • Few at 2,000' AGL
Temperature
31°C / 88°F
Dewpoint
23°C / 73°F
Heat Index
36°C / 96°F
Humidity
62%
Altimeter
29.85" Hg
Pressure
1010.92 hPa
Previous

10 hours ago

FMNN 201200Z 25008KT 9999 FEW020 32/22 Q1011
Observed
Oct-20 @ 12:00 UTC
Wind
  • 250° at 8 KTS
Visibility
10,000+ meters
Flight Rules
VFR
Cloud Levels
  • Few at 2,000' AGL
Temperature
32°C / 90°F
Dewpoint
22°C / 72°F
Heat Index
36°C / 97°F
Humidity
55%
Altimeter
29.85" Hg
Pressure
1010.92 hPa